Time;durP1;ratioP1;P1;durP2;ratioP2;P2;SDS_P1;SDS_P2;PMS_P1;PMS_P2;Temp;Humidity;BMP_temperature;BMP_pressure;BME280_temperature;BME280_humidity;BME280_pressure;Samples;Min_cycle;Max_cycle;Signal;HPM_P1;HPM_P2
2021/04/08 00:00:23;;;;;;;17.42;10.02;;;1.20;99.90;;;;;;5032705;28;20492;-65
2021/04/08 00:02:50;;;;;;;15.52;9.10;;;1.20;99.90;;;;;;5031875;28;20569;-66
2021/04/08 00:05:17;;;;;;;13.90;8.15;;;1.10;99.90;;;;;;5032551;28;20042;-65
2021/04/08 00:07:44;;;;;;;14.40;8.32;;;1.10;99.90;;;;;;5031667;28;20053;-66
2021/04/08 00:10:12;;;;;;;15.93;8.55;;;1.10;99.90;;;;;;5032066;28;20061;-66
2021/04/08 00:12:40;;;;;;;12.80;9.07;;;1.20;99.90;;;;;;5025330;28;20052;-66
2021/04/08 00:15:09;;;;;;;18.73;9.07;;;1.20;99.90;;;;;;5025200;28;20053;-66
2021/04/08 00:17:36;;;;;;;17.13;8.90;;;1.20;99.90;;;;;;5021711;28;20385;-66
2021/04/08 00:20:13;;;;;;;13.77;8.35;;;1.10;99.90;;;;;;5023343;28;20056;-66
2021/04/08 00:22:41;;;;;;;16.65;8.65;;;1.20;99.90;;;;;;5030637;28;20415;-66
2021/04/08 00:25:09;;;;;;;14.45;8.40;;;1.10;99.90;;;;;;5019782;28;20057;-65
2021/04/08 00:27:36;;;;;;;13.40;8.18;;;1.10;99.90;;;;;;5019228;28;20164;-65
2021/04/08 00:30:04;;;;;;;12.13;8.65;;;1.20;99.90;;;;;;5021194;28;20038;-66
2021/04/08 00:32:31;;;;;;;16.58;8.38;;;1.20;99.90;;;;;;5017723;28;20046;-66
2021/04/08 00:35:05;;;;;;;15.75;8.95;;;1.10;99.90;;;;;;5013273;28;20121;-67
2021/04/08 00:37:32;;;;;;;15.88;8.73;;;1.20;99.90;;;;;;5022797;28;20061;-66
2021/04/08 00:39:59;;;;;;;12.35;8.48;;;1.10;99.90;;;;;;5028018;28;20175;-68
2021/04/08 00:42:26;;;;;;;13.18;8.85;;;1.20;99.90;;;;;;5015903;28;20110;-67
2021/04/08 00:44:53;;;;;;;12.43;7.53;;;1.20;99.90;;;;;;5023655;28;20045;-67
2021/04/08 00:47:21;;;;;;;12.98;8.55;;;1.20;99.90;;;;;;5027791;28;20038;-67
2021/04/08 00:49:48;;;;;;;16.73;8.52;;;1.20;99.90;;;;;;5013289;28;20049;-67
2021/04/08 00:52:14;;;;;;;11.95;7.93;;;1.30;99.90;;;;;;5021951;28;20046;-66
2021/04/08 00:54:42;;;;;;;17.27;8.68;;;1.20;99.90;;;;;;5030646;28;20048;-67
2021/04/08 00:57:09;;;;;;;11.82;8.52;;;1.20;99.90;;;;;;5029944;28;20507;-67
2021/04/08 00:59:36;;;;;;;14.27;8.15;;;1.20;99.90;;;;;;5027453;28;20045;-67
2021/04/08 01:02:03;;;;;;;14.38;8.52;;;1.20;99.90;;;;;;5021906;28;20050;-67
2021/04/08 01:04:30;;;;;;;13.95;8.02;;;1.30;99.90;;;;;;5030948;28;20484;-67
2021/04/08 01:06:57;;;;;;;14.77;8.65;;;1.30;99.90;;;;;;5030425;28;20049;-67
2021/04/08 01:09:25;;;;;;;19.27;8.85;;;1.30;99.90;;;;;;5025974;28;20085;-67
2021/04/08 01:11:54;;;;;;;12.65;7.70;;;1.30;99.90;;;;;;5029886;28;20144;-67
2021/04/08 01:14:21;;;;;;;16.33;7.78;;;1.30;99.90;;;;;;5031981;28;20550;-67
2021/04/08 01:17:14;;;;;;;13.18;8.20;;;1.20;99.90;;;;;;5031058;28;20045;-67
2021/04/08 01:20:31;;;;;;;15.13;8.30;;;1.20;99.90;;;;;;5026406;28;20089;-67
2021/04/08 01:23:23;;;;;;;14.60;8.10;;;1.20;99.90;;;;;;5023734;28;20519;-66
2021/04/08 01:26:32;;;;;;;15.18;8.85;;;1.30;99.90;;;;;;5024809;28;20053;-66
2021/04/08 01:29:40;;;;;;;12.10;7.57;;;1.30;99.90;;;;;;5035704;28;20061;-66
2021/04/08 01:32:10;;;;;;;14.32;8.10;;;1.20;99.90;;;;;;5041539;28;20045;-66
2021/04/08 01:34:41;;;;;;;15.15;7.90;;;1.10;99.90;;;;;;5032070;28;20132;-66
2021/04/08 01:37:11;;;;;;;17.02;8.70;;;1.10;99.90;;;;;;5027393;28;20049;-67
2021/04/08 01:39:41;;;;;;;17.13;8.02;;;1.10;99.90;;;;;;5029965;28;20037;-67
2021/04/08 01:42:09;;;;;;;14.25;7.25;;;1.10;99.90;;;;;;5046662;28;20075;-67
2021/04/08 01:44:36;;;;;;;9.60;7.10;;;1.10;99.90;;;;;;5036766;28;20462;-67
2021/04/08 01:47:09;;;;;;;12.57;7.30;;;1.20;99.90;;;;;;5028771;28;20053;-67
2021/04/08 01:49:40;;;;;;;12.55;7.10;;;1.20;99.90;;;;;;5013644;28;20054;-67
2021/04/08 01:52:11;;;;;;;9.93;6.88;;;1.10;99.90;;;;;;5027903;28;20506;-67
2021/04/08 01:54:40;;;;;;;12.90;6.82;;;1.00;99.90;;;;;;5047029;28;20048;-67
2021/04/08 01:57:10;;;;;;;12.85;7.63;;;1.00;99.90;;;;;;5047447;28;20060;-67
2021/04/08 01:59:37;;;;;;;10.35;6.85;;;1.00;99.90;;;;;;5050803;28;20196;-66
2021/04/08 02:02:05;;;;;;;11.88;7.25;;;1.00;99.90;;;;;;5051367;28;20045;-66
2021/04/08 02:04:32;;;;;;;10.07;6.75;;;1.00;99.90;;;;;;5050752;28;20513;-66
2021/04/08 02:07:02;;;;;;;14.85;7.80;;;1.00;99.90;;;;;;5051918;28;20132;-66
2021/04/08 02:09:33;;;;;;;13.52;7.22;;;0.90;99.90;;;;;;5038040;28;20066;-65
2021/04/08 02:12:00;;;;;;;12.30;7.65;;;1.00;99.90;;;;;;5033627;28;20053;-67
2021/04/08 02:14:29;;;;;;;11.50;7.47;;;0.90;99.90;;;;;;5036956;28;20053;-67
2021/04/08 02:16:57;;;;;;;13.25;7.75;;;0.90;99.90;;;;;;5026095;28;20048;-67
2021/04/08 02:19:25;;;;;;;14.88;8.52;;;0.90;99.90;;;;;;5033419;28;20076;-67
2021/04/08 02:21:53;;;;;;;10.80;7.25;;;0.90;99.90;;;;;;5033879;28;20057;-67
2021/04/08 02:24:20;;;;;;;11.35;7.07;;;1.00;99.90;;;;;;5032764;28;20057;-67
2021/04/08 02:26:49;;;;;;;14.40;9.50;;;1.00;99.90;;;;;;5027678;28;20076;-66
2021/04/08 02:29:18;;;;;;;15.05;7.40;;;0.90;99.90;;;;;;5030097;28;20100;-67
2021/04/08 02:31:46;;;;;;;14.07;7.65;;;0.90;99.90;;;;;;5031393;28;20154;-67
2021/04/08 02:34:13;;;;;;;14.43;8.40;;;0.90;99.90;;;;;;5015039;28;20083;-66
2021/04/08 02:36:40;;;;;;;17.55;8.18;;;0.90;99.90;;;;;;5013664;28;20129;-66
2021/04/08 02:39:08;;;;;;;16.25;7.57;;;0.90;99.90;;;;;;5019733;28;20049;-66
2021/04/08 02:41:43;;;;;;;13.75;7.40;;;0.90;99.90;;;;;;5028709;28;20088;-66
2021/04/08 02:44:10;;;;;;;14.38;7.85;;;0.90;99.90;;;;;;5026211;28;20061;-66
2021/04/08 02:46:37;;;;;;;14.73;8.68;;;0.90;99.90;;;;;;5015332;28;20073;-66
2021/04/08 02:49:04;;;;;;;14.13;7.43;;;0.90;99.90;;;;;;5015060;28;20052;-66
2021/04/08 02:51:56;;;;;;;13.88;6.93;;;0.90;99.90;;;;;;5020037;28;20080;-67
2021/04/08 02:54:28;;;;;;;12.25;5.85;;;1.00;99.90;;;;;;5028107;28;20507;-66
2021/04/08 02:57:01;;;;;;;12.32;7.13;;;1.00;99.90;;;;;;5031854;28;20053;-67
2021/04/08 02:59:43;;;;;;;12.45;7.10;;;0.90;99.90;;;;;;5025418;28;20054;-66
2021/04/08 03:02:14;;;;;;;11.38;7.15;;;1.00;99.90;;;;;;5028701;28;20055;-66
2021/04/08 03:04:47;;;;;;;13.25;7.25;;;1.00;99.90;;;;;;5031525;28;20053;-66
2021/04/08 03:07:23;;;;;;;11.07;7.28;;;0.90;99.90;;;;;;5031969;28;20060;-66
2021/04/08 03:09:51;;;;;;;16.60;7.32;;;0.90;99.90;;;;;;5031692;28;20081;-66
2021/04/08 03:12:20;;;;;;;12.43;7.15;;;0.90;99.90;;;;;;5031890;28;20049;-65
2021/04/08 03:14:51;;;;;;;13.25;7.15;;;0.80;99.90;;;;;;5033498;28;20037;-66
2021/04/08 03:17:23;;;;;;;14.13;7.85;;;0.90;99.90;;;;;;5010898;28;20053;-66
2021/04/08 03:19:53;;;;;;;18.20;8.02;;;0.80;99.90;;;;;;5024883;28;20045;-66
2021/04/08 03:22:23;;;;;;;16.55;8.20;;;0.80;99.90;;;;;;5031755;28;20593;-66
2021/04/08 03:24:56;;;;;;;16.60;7.82;;;0.80;99.90;;;;;;5031642;28;20171;-66
2021/04/08 03:27:26;;;;;;;12.48;7.55;;;0.80;99.90;;;;;;5016815;28;20124;-66
2021/04/08 03:29:54;;;;;;;14.05;8.65;;;0.90;99.90;;;;;;5032184;28;20057;-66
2021/04/08 03:32:22;;;;;;;11.05;7.50;;;0.90;99.90;;;;;;5030488;28;20080;-66
2021/04/08 03:34:51;;;;;;;11.70;7.57;;;0.90;99.90;;;;;;5032010;28;20108;-66
2021/04/08 03:37:19;;;;;;;12.80;7.95;;;0.80;99.90;;;;;;5030207;28;20049;-66
2021/04/08 03:39:46;;;;;;;15.13;8.13;;;0.80;99.90;;;;;;5031239;28;20076;-66
2021/04/08 03:42:14;;;;;;;15.57;7.68;;;0.80;99.90;;;;;;5029109;28;20467;-66
2021/04/08 03:44:41;;;;;;;12.55;8.07;;;0.90;99.90;;;;;;5030074;28;20388;-65
2021/04/08 03:47:09;;;;;;;15.00;7.85;;;0.80;99.90;;;;;;5029858;28;20049;-66
2021/04/08 03:49:36;;;;;;;15.80;7.82;;;0.80;99.90;;;;;;5029363;28;20045;-66
2021/04/08 03:52:07;;;;;;;13.07;7.88;;;0.80;99.90;;;;;;4999074;28;904585;-66
2021/04/08 03:54:35;;;;;;;15.05;7.40;;;0.80;99.90;;;;;;5029619;28;20042;-67
2021/04/08 03:57:06;;;;;;;17.77;7.97;;;0.80;99.90;;;;;;5031106;28;20150;-67
2021/04/08 03:59:50;;;;;;;17.20;8.77;;;0.70;99.90;;;;;;5044353;28;20096;-66
2021/04/08 04:02:18;;;;;;;10.48;7.57;;;0.80;99.90;;;;;;5031964;28;20052;-67
2021/04/08 04:04:47;;;;;;;13.20;8.02;;;0.80;99.90;;;;;;5025012;28;20096;-67
2021/04/08 04:07:15;;;;;;;13.13;7.72;;;0.70;99.90;;;;;;5026224;28;20519;-67
2021/04/08 04:09:42;;;;;;;12.73;8.20;;;0.70;99.90;;;;;;5021693;28;20061;-67
2021/04/08 04:12:14;;;;;;;13.50;7.38;;;0.80;99.90;;;;;;5024931;28;20061;-67
2021/04/08 04:14:45;;;;;;;14.80;7.38;;;0.70;99.90;;;;;;5032188;28;20503;-67
2021/04/08 04:17:26;;;;;;;12.73;7.88;;;0.70;99.90;;;;;;5027862;28;20107;-67
2021/04/08 04:19:53;;;;;;;11.13;6.75;;;0.70;99.90;;;;;;5031827;28;20072;-67
2021/04/08 04:22:38;;;;;;;10.85;7.55;;;0.70;99.90;;;;;;5030012;28;20136;-67
2021/04/08 04:25:07;;;;;;;13.07;7.53;;;0.70;99.90;;;;;;5028031;28;20061;-67
2021/04/08 04:27:34;;;;;;;11.32;7.15;;;0.70;99.90;;;;;;5028745;28;20057;-67
2021/04/08 04:30:04;;;;;;;14.45;8.23;;;0.60;99.90;;;;;;5030383;28;20132;-67
2021/04/08 04:32:31;;;;;;;12.93;7.07;;;0.60;99.90;;;;;;5046525;28;20053;-67
2021/04/08 04:34:58;;;;;;;13.50;7.07;;;0.60;99.90;;;;;;5029016;28;20155;-67
2021/04/08 04:37:25;;;;;;;13.10;7.75;;;0.60;99.90;;;;;;5044491;28;20095;-67
2021/04/08 04:39:51;;;;;;;11.73;7.63;;;0.60;99.90;;;;;;5029973;28;20454;-67
2021/04/08 04:42:18;;;;;;;13.27;7.45;;;0.60;99.90;;;;;;5029997;28;20139;-67
2021/04/08 04:44:45;;;;;;;13.48;7.82;;;0.50;99.90;;;;;;5029133;28;20136;-67
2021/04/08 04:47:12;;;;;;;10.32;7.05;;;0.50;99.90;;;;;;5031857;28;20053;-67
2021/04/08 04:49:39;;;;;;;15.25;7.38;;;0.60;99.90;;;;;;5028761;28;20072;-66
2021/04/08 04:52:06;;;;;;;11.20;6.95;;;0.60;99.90;;;;;;5025779;28;20574;-67
2021/04/08 04:54:33;;;;;;;15.25;7.90;;;0.70;99.90;;;;;;5015849;28;20149;-67
2021/04/08 04:57:00;;;;;;;11.35;7.03;;;0.70;99.90;;;;;;5017250;28;20096;-67
2021/04/08 04:59:27;;;;;;;10.77;7.28;;;0.70;99.90;;;;;;5023555;28;20504;-67
2021/04/08 05:01:54;;;;;;;14.80;8.02;;;0.70;99.90;;;;;;5023892;28;20045;-67
2021/04/08 05:04:21;;;;;;;13.85;7.88;;;0.70;99.90;;;;;;5027706;28;20049;-67
2021/04/08 05:06:47;;;;;;;16.00;7.70;;;0.60;99.90;;;;;;5014430;28;20053;-67
2021/04/08 05:09:14;;;;;;;15.38;8.63;;;0.70;99.90;;;;;;5020243;28;20543;-67
2021/04/08 05:11:41;;;;;;;15.80;8.95;;;0.70;99.90;;;;;;5030810;28;20389;-67
2021/04/08 05:14:08;;;;;;;13.18;8.38;;;0.70;99.90;;;;;;5031565;28;20057;-68
2021/04/08 05:16:35;;;;;;;15.90;8.35;;;0.70;99.90;;;;;;5030749;28;20049;-67
2021/04/08 05:19:02;;;;;;;14.57;8.80;;;0.70;99.90;;;;;;5031289;28;20077;-67
2021/04/08 05:21:29;;;;;;;14.57;9.57;;;0.70;99.90;;;;;;5018696;28;20049;-67
2021/04/08 05:23:56;;;;;;;16.95;9.05;;;0.70;99.90;;;;;;5016274;28;20058;-67
2021/04/08 05:26:22;;;;;;;11.70;8.05;;;0.80;99.90;;;;;;5024055;28;20060;-67
2021/04/08 05:28:49;;;;;;;12.70;7.47;;;0.80;99.90;;;;;;5019675;28;20052;-67
2021/04/08 05:31:16;;;;;;;12.13;7.47;;;0.90;99.90;;;;;;5020750;28;20046;-67
2021/04/08 05:33:43;;;;;;;13.18;7.93;;;0.90;99.90;;;;;;5013801;28;20470;-67
2021/04/08 05:36:11;;;;;;;15.35;8.18;;;0.90;99.90;;;;;;5026841;28;20062;-67
2021/04/08 05:38:38;;;;;;;14.10;8.25;;;1.00;99.90;;;;;;5013689;28;20747;-67
2021/04/08 05:41:05;;;;;;;14.38;7.97;;;1.00;99.90;;;;;;5028330;28;20068;-67
2021/04/08 05:43:32;;;;;;;12.27;8.05;;;1.00;99.90;;;;;;5025029;28;20065;-66
2021/04/08 05:45:59;;;;;;;14.23;7.97;;;1.00;99.90;;;;;;5030082;28;20507;-67
2021/04/08 05:48:26;;;;;;;11.15;7.90;;;1.00;99.90;;;;;;5027652;28;20054;-67
2021/04/08 05:50:53;;;;;;;11.82;7.72;;;1.10;99.90;;;;;;5027456;28;20416;-66
2021/04/08 05:53:19;;;;;;;13.52;8.48;;;1.10;99.90;;;;;;5029988;28;20107;-67
2021/04/08 05:55:46;;;;;;;12.82;8.60;;;1.10;99.90;;;;;;5012990;28;20092;-67
2021/04/08 05:58:13;;;;;;;15.73;8.50;;;1.10;99.90;;;;;;5012189;28;20584;-67
2021/04/08 06:00:41;;;;;;;17.23;8.13;;;1.10;99.90;;;;;;5026849;28;20107;-66
2021/04/08 06:03:07;;;;;;;15.68;8.55;;;1.20;99.90;;;;;;5026556;28;20048;-67
2021/04/08 06:05:35;;;;;;;13.82;8.07;;;1.20;99.90;;;;;;5026203;28;20055;-68
2021/04/08 06:08:02;;;;;;;14.77;7.78;;;1.30;99.90;;;;;;5028741;28;20049;-68
2021/04/08 06:10:29;;;;;;;17.63;8.75;;;1.30;99.90;;;;;;5026049;28;20048;-67
2021/04/08 06:12:56;;;;;;;12.10;8.07;;;1.30;99.90;;;;;;5021206;28;20050;-66
2021/04/08 06:15:23;;;;;;;16.42;8.45;;;1.30;99.90;;;;;;5031570;28;20104;-67
2021/04/08 06:17:50;;;;;;;17.13;8.40;;;1.40;99.90;;;;;;5022071;28;20489;-68
2021/04/08 06:20:17;;;;;;;12.65;8.35;;;1.40;99.90;;;;;;5025624;28;20076;-67
2021/04/08 06:23:03;;;;;;;13.82;8.73;;;1.40;99.90;;;;;;5021576;28;20100;-67
2021/04/08 06:25:31;;;;;;;15.88;8.60;;;1.60;99.90;;;;;;5018653;28;20045;-67
2021/04/08 06:27:59;;;;;;;15.27;8.55;;;1.70;99.90;;;;;;5021942;28;20057;-67
2021/04/08 06:30:26;;;;;;;16.48;8.50;;;1.70;99.90;;;;;;5016989;28;20459;-68
2021/04/08 06:32:53;;;;;;;18.33;8.82;;;1.70;99.90;;;;;;5018419;28;20139;-67
2021/04/08 06:35:23;;;;;;;17.70;8.35;;;1.80;99.90;;;;;;5027944;28;20038;-67
2021/04/08 06:37:51;;;;;;;12.63;8.98;;;1.80;99.90;;;;;;5015428;28;20065;-69
2021/04/08 06:40:20;;;;;;;15.05;9.82;;;1.80;99.90;;;;;;5039228;28;20809;-68
2021/04/08 06:42:50;;;;;;;15.75;8.80;;;1.90;99.90;;;;;;5021519;28;20053;-68
2021/04/08 06:45:17;;;;;;;13.32;9.40;;;2.00;99.90;;;;;;5027945;28;20038;-68
2021/04/08 06:48:11;;;;;;;15.02;8.77;;;2.10;99.90;;;;;;5031382;28;20056;-67
2021/04/08 06:50:40;;;;;;;14.00;8.50;;;2.30;99.90;;;;;;5031503;28;20471;-67
2021/04/08 06:53:08;;;;;;;16.10;8.93;;;2.30;99.90;;;;;;5029726;28;20073;-67
2021/04/08 06:55:35;;;;;;;14.13;8.95;;;2.20;99.90;;;;;;5033209;28;20053;-67
2021/04/08 06:58:04;;;;;;;21.45;12.88;;;2.30;99.90;;;;;;5035576;28;20512;-66
2021/04/08 07:00:34;;;;;;;15.27;8.73;;;2.40;99.90;;;;;;5033506;28;20547;-66
2021/04/08 07:03:04;;;;;;;17.60;8.98;;;2.50;99.90;;;;;;5032054;28;20081;-67
2021/04/08 07:05:31;;;;;;;17.42;8.95;;;2.40;99.90;;;;;;5032281;28;20049;-66
2021/04/08 07:07:58;;;;;;;18.63;9.40;;;2.40;99.90;;;;;;5032141;28;20060;-66
2021/04/08 07:10:25;;;;;;;14.07;9.25;;;2.50;99.90;;;;;;5033321;28;20049;-68
2021/04/08 07:12:56;;;;;;;14.88;9.07;;;2.40;99.90;;;;;;5032532;28;20037;-66
2021/04/08 07:15:24;;;;;;;15.15;9.55;;;2.40;99.90;;;;;;5042974;28;20102;-67
2021/04/08 07:17:51;;;;;;;16.98;9.32;;;2.60;99.90;;;;;;5030831;28;20136;-67
2021/04/08 07:20:18;;;;;;;16.40;8.98;;;2.80;99.90;;;;;;5031708;28;20038;-66
2021/04/08 07:22:45;;;;;;;14.98;9.13;;;2.80;99.90;;;;;;5031627;28;20077;-68
2021/04/08 07:25:20;;;;;;;15.40;10.07;;;2.90;99.90;;;;;;5028883;28;20124;-67
2021/04/08 07:27:47;;;;;;;14.77;9.50;;;2.80;99.90;;;;;;5014377;28;20069;-67
2021/04/08 07:30:18;;;;;;;17.00;9.50;;;2.80;99.90;;;;;;5018560;28;20095;-67
2021/04/08 07:32:58;;;;;;;15.23;9.48;;;2.80;99.90;;;;;;5031114;28;20361;-67
2021/04/08 07:35:37;;;;;;;22.55;10.20;;;2.80;99.90;;;;;;5031128;28;20128;-66
2021/04/08 07:38:04;;;;;;;17.33;9.98;;;2.80;99.90;;;;;;5029178;28;20114;-66
2021/04/08 07:40:31;;;;;;;16.48;9.70;;;2.90;99.90;;;;;;5022981;28;20057;-66
2021/04/08 07:43:11;;;;;;;18.85;10.10;;;3.10;99.90;;;;;;5030540;28;20041;-68
2021/04/08 07:45:38;;;;;;;21.65;9.63;;;3.40;99.90;;;;;;5025307;28;20088;-66
2021/04/08 07:48:07;;;;;;;14.85;9.50;;;3.20;99.90;;;;;;5030054;28;20065;-66
2021/04/08 07:50:38;;;;;;;17.42;10.13;;;3.10;99.90;;;;;;5030240;28;20373;-66
2021/04/08 07:53:06;;;;;;;13.77;9.75;;;3.10;99.90;;;;;;5023913;28;20540;-66
2021/04/08 07:55:32;;;;;;;18.23;9.95;;;3.20;99.90;;;;;;5030991;28;20065;-66
2021/04/08 07:58:01;;;;;;;14.23;10.10;;;3.20;99.90;;;;;;5029673;28;20053;-66
2021/04/08 08:00:37;;;;;;;16.67;10.75;;;3.50;99.90;;;;;;5028477;28;20057;-66
2021/04/08 08:03:10;;;;;;;15.07;9.82;;;3.40;99.90;;;;;;5031064;28;20072;-66
2021/04/08 08:05:46;;;;;;;20.65;10.18;;;3.30;99.90;;;;;;5030682;28;20085;-66
2021/04/08 08:08:19;;;;;;;15.30;9.52;;;3.40;99.90;;;;;;5031430;28;20487;-66
2021/04/08 08:10:59;;;;;;;13.10;9.20;;;3.60;99.90;;;;;;5030798;28;20131;-66
2021/04/08 08:13:50;;;;;;;20.88;11.27;;;3.70;99.90;;;;;;5028628;28;20076;-66
2021/04/08 08:16:19;;;;;;;13.38;9.82;;;3.70;99.90;;;;;;5028561;28;20045;-65
2021/04/08 08:18:47;;;;;;;16.20;10.52;;;3.70;99.90;;;;;;5028494;28;20049;-65
2021/04/08 08:21:20;;;;;;;18.08;10.75;;;3.70;99.90;;;;;;5029907;28;20478;-67
2021/04/08 08:23:52;;;;;;;16.45;10.23;;;3.80;99.90;;;;;;5029845;28;20450;-67
2021/04/08 08:26:28;;;;;;;;;;;3.70;99.90;;;;;;5025357;28;20074;-67
2021/04/08 08:28:59;;;;;;;16.40;9.75;;;3.70;99.90;;;;;;5011103;28;19952;-67
2021/04/08 08:31:41;;;;;;;17.98;9.98;;;4.00;99.90;;;;;;5011326;28;20579;-67
2021/04/08 08:34:23;;;;;;;14.43;9.52;;;4.10;99.90;;;;;;5020536;28;20041;-66
2021/04/08 08:36:53;;;;;;;15.27;9.30;;;4.00;99.90;;;;;;5028202;28;20117;-67
2021/04/08 08:39:25;;;;;;;18.90;9.18;;;3.90;99.90;;;;;;5029430;28;20077;-67
2021/04/08 08:41:53;;;;;;;14.02;8.80;;;4.30;99.90;;;;;;5030060;28;20049;-67
2021/04/08 08:44:22;;;;;;;11.63;9.13;;;4.30;99.90;;;;;;5024729;28;20495;-67
2021/04/08 08:46:54;;;;;;;14.82;9.38;;;4.10;99.90;;;;;;5027092;28;20049;-67
2021/04/08 08:49:27;;;;;;;15.30;9.15;;;4.00;99.90;;;;;;5029996;28;20132;-67
2021/04/08 08:51:58;;;;;;;10.85;8.65;;;4.00;99.90;;;;;;5029056;28;20136;-66
2021/04/08 08:54:27;;;;;;;16.83;9.27;;;4.10;99.90;;;;;;5027718;28;20057;-67
2021/04/08 08:56:56;;;;;;;13.35;8.32;;;4.10;99.90;;;;;;5027702;28;20104;-67
2021/04/08 08:59:24;;;;;;;17.67;9.43;;;4.20;99.90;;;;;;5029016;28;20057;-67
2021/04/08 09:01:52;;;;;;;13.88;8.57;;;4.30;99.90;;;;;;5028757;28;20073;-67
2021/04/08 09:04:40;;;;;;;12.20;8.38;;;4.60;99.90;;;;;;5029188;28;20058;-67
2021/04/08 09:07:10;;;;;;;12.63;8.55;;;4.60;99.90;;;;;;5029434;28;20107;-67
2021/04/08 09:09:43;;;;;;;14.35;8.90;;;4.70;99.90;;;;;;5029182;28;20107;-67
2021/04/08 09:12:32;;;;;;;14.05;8.60;;;4.60;99.90;;;;;;5016842;28;20515;-67
2021/04/08 09:14:59;;;;;;;14.75;8.55;;;4.70;99.90;;;;;;5035572;28;20049;-67
2021/04/08 09:17:47;;;;;;;12.18;7.90;;;4.90;99.90;;;;;;5030066;28;20073;-67
2021/04/08 09:20:17;;;;;;;14.93;8.68;;;4.70;99.90;;;;;;5021470;28;20110;-67
2021/04/08 09:23:06;;;;;;;12.23;7.68;;;4.90;99.90;;;;;;5043587;28;20390;-67
2021/04/08 09:25:37;;;;;;;10.93;8.25;;;4.80;99.90;;;;;;5026609;28;20375;-66
2021/04/08 09:28:08;;;;;;;9.47;7.90;;;4.80;99.90;;;;;;5030398;28;20073;-67
2021/04/08 09:33:42;;;;;;;10.85;8.10;;;5.10;99.90;;;;;;5029743;28;20047;-67
2021/04/08 09:36:18;;;;;;;12.23;8.95;;;5.20;99.90;;;;;;5015089;28;20050;-67
2021/04/08 09:38:44;;;;;;;10.98;7.88;;;5.30;99.90;;;;;;5012106;28;20137;-67
2021/04/08 09:41:11;;;;;;;12.40;8.93;;;5.40;99.90;;;;;;5025890;28;20129;-65
2021/04/08 09:43:39;;;;;;;11.00;8.00;;;5.30;99.90;;;;;;5030459;28;20492;-66
2021/04/08 09:46:09;;;;;;;10.85;8.98;;;5.40;99.90;;;;;;5019404;28;20080;-66
2021/04/08 09:48:54;;;;;;;11.43;8.27;;;5.60;99.90;;;;;;5029844;28;20571;-66
2021/04/08 09:51:26;;;;;;;10.40;8.48;;;5.90;99.90;;;;;;5044207;28;20041;-66
2021/04/08 09:53:52;;;;;;;8.93;8.02;;;5.80;99.90;;;;;;5030636;28;20397;-66
2021/04/08 09:56:44;;;;;;;9.00;7.90;;;5.80;99.90;;;;;;5029702;28;20053;-66
2021/04/08 09:59:11;;;;;;;10.50;8.15;;;5.60;99.90;;;;;;5029468;28;20053;-66
2021/04/08 10:01:38;;;;;;;10.85;8.55;;;5.30;99.90;;;;;;5026118;28;20077;-66
2021/04/08 10:04:17;;;;;;;11.63;8.98;;;5.30;99.90;;;;;;5029814;28;20455;-66
2021/04/08 10:06:44;;;;;;;11.15;8.98;;;5.30;99.90;;;;;;5029610;28;20053;-66
2021/04/08 10:09:14;;;;;;;9.70;8.70;;;5.20;99.90;;;;;;5045656;28;20038;-66
2021/04/08 10:11:41;;;;;;;11.10;8.90;;;5.30;99.90;;;;;;5027561;28;20676;-66
2021/04/08 10:14:23;;;;;;;10.50;9.40;;;5.20;99.90;;;;;;5029902;28;20067;-66
2021/04/08 10:17:06;;;;;;;11.65;9.43;;;5.40;99.90;;;;;;5027454;28;20052;-67
2021/04/08 10:19:36;;;;;;;13.45;8.93;;;5.60;99.90;;;;;;5029907;28;20471;-66
2021/04/08 10:22:03;;;;;;;12.20;8.70;;;5.60;99.90;;;;;;5032830;28;20057;-67
2021/04/08 10:24:38;;;;;;;15.00;9.80;;;5.90;99.90;;;;;;5032969;28;20046;-66
2021/04/08 10:27:12;;;;;;;10.27;9.25;;;5.70;99.90;;;;;;5021227;28;20111;-66
2021/04/08 10:29:39;;;;;;;10.68;9.57;;;5.70;99.90;;;;;;5013227;28;20058;-66
2021/04/08 10:32:06;;;;;;;14.55;10.32;;;5.70;99.90;;;;;;5026343;28;20137;-67
2021/04/08 10:34:40;;;;;;;10.13;9.05;;;5.80;99.90;;;;;;5030765;28;20049;-66
2021/04/08 10:37:09;;;;;;;11.15;9.15;;;5.70;99.90;;;;;;5033101;28;20089;-66
2021/04/08 10:39:39;;;;;;;11.82;9.23;;;5.60;99.90;;;;;;5021468;28;20088;-67
2021/04/08 10:42:12;;;;;;;13.00;9.60;;;5.50;99.90;;;;;;5031640;28;20060;-67
2021/04/08 10:44:43;;;;;;;10.68;9.50;;;5.50;99.90;;;;;;5030836;28;20053;-67
2021/04/08 10:47:13;;;;;;;10.57;8.95;;;5.50;99.90;;;;;;5033335;28;20393;-67
2021/04/08 10:49:49;;;;;;;12.02;9.13;;;5.50;99.90;;;;;;5031603;28;20068;-67
2021/04/08 10:52:22;;;;;;;11.45;9.70;;;5.60;99.90;;;;;;5033122;28;20091;-66
2021/04/08 10:54:50;;;;;;;;;;;5.90;99.90;;;;;;5029872;28;20068;-66
2021/04/08 10:57:17;;;;;;;12.68;9.43;;;6.00;99.90;;;;;;5029528;28;19925;-69
2021/04/08 10:59:46;;;;;;;12.80;9.75;;;6.40;99.90;;;;;;5032877;28;20099;-66
2021/04/08 11:02:33;;;;;;;10.48;9.48;;;6.70;99.90;;;;;;5031402;28;20045;-66
2021/04/08 11:05:07;;;;;;;12.82;9.32;;;7.10;99.90;;;;;;5028579;28;20112;-66
2021/04/08 11:07:41;;;;;;;11.95;9.15;;;7.00;99.90;;;;;;5026124;28;20496;-66
2021/04/08 11:10:11;;;;;;;13.35;9.50;;;7.00;99.90;;;;;;5021048;28;20045;-65
2021/04/08 11:12:38;;;;;;;10.88;9.77;;;6.40;99.90;;;;;;5028485;28;20461;-66
2021/04/08 11:15:08;;;;;;;12.05;9.60;;;5.90;99.90;;;;;;5044578;28;20116;-66
2021/04/08 11:17:39;;;;;;;10.60;9.50;;;5.50;99.90;;;;;;5028909;28;20056;-67
2021/04/08 11:20:07;;;;;;;13.43;8.85;;;5.40;99.90;;;;;;5030000;28;20504;-67
2021/04/08 11:22:36;;;;;;;10.82;9.07;;;5.30;99.90;;;;;;5021477;28;20053;-66
2021/04/08 11:25:07;;;;;;;10.27;9.23;;;5.20;99.90;;;;;;5027528;28;20046;-67
2021/04/08 11:27:39;;;;;;;10.20;9.27;;;5.10;99.90;;;;;;5022596;28;20065;-67
2021/04/08 11:30:08;;;;;;;11.30;9.27;;;5.30;99.90;;;;;;5030333;28;20464;-67
2021/04/08 11:32:49;;;;;;;12.02;9.50;;;5.20;99.90;;;;;;5026643;28;20061;-67
2021/04/08 11:35:28;;;;;;;9.70;8.38;;;5.30;99.90;;;;;;5022450;28;20484;-67
2021/04/08 11:38:21;;;;;;;10.27;8.98;;;5.40;99.90;;;;;;5017909;28;20393;-67
2021/04/08 11:41:02;;;;;;;12.88;9.30;;;5.70;99.90;;;;;;5020406;28;20148;-67
2021/04/08 11:43:41;;;;;;;10.82;9.05;;;6.10;99.90;;;;;;5021426;28;20046;-67
2021/04/08 11:46:26;;;;;;;10.65;8.73;;;6.40;99.90;;;;;;5031440;28;20052;-67
2021/04/08 11:48:53;;;;;;;9.60;8.48;;;6.40;99.90;;;;;;5024345;28;20119;-67
2021/04/08 11:51:27;;;;;;;10.98;8.80;;;6.50;99.90;;;;;;5016280;28;20050;-67
2021/04/08 11:53:54;;;;;;;10.90;8.93;;;6.60;99.90;;;;;;5024485;28;20061;-67
2021/04/08 11:56:36;;;;;;;12.43;8.98;;;6.60;99.90;;;;;;5031411;28;20042;-67
2021/04/08 11:59:13;;;;;;;9.20;8.23;;;6.50;99.90;;;;;;5025172;28;20111;-67
2021/04/08 12:02:06;;;;;;;9.27;8.38;;;6.50;99.90;;;;;;5027610;28;20091;-67
2021/04/08 12:04:34;;;;;;;8.95;8.15;;;6.70;99.90;;;;;;5029763;28;20152;-67
2021/04/08 12:07:06;;;;;;;8.77;8.05;;;7.00;99.90;;;;;;5028727;28;20152;-67
2021/04/08 12:09:35;;;;;;;9.25;8.32;;;7.10;99.90;;;;;;5028373;28;20053;-67
2021/04/08 12:12:04;;;;;;;8.43;7.63;;;7.50;99.90;;;;;;5024296;28;20111;-67
2021/04/08 12:14:31;;;;;;;10.30;8.05;;;7.80;99.90;;;;;;5030649;28;20061;-67
2021/04/08 12:17:12;;;;;;;11.05;8.00;;;7.80;99.90;;;;;;5029034;28;20506;-66
2021/04/08 12:19:39;;;;;;;8.90;7.93;;;7.20;99.90;;;;;;5028104;28;20488;-67
2021/04/08 12:22:11;;;;;;;9.43;8.07;;;7.40;99.90;;;;;;5041410;28;20416;-67
2021/04/08 12:24:39;;;;;;;9.35;8.27;;;7.20;99.90;;;;;;5029037;28;20123;-67
2021/04/08 12:27:19;;;;;;;8.82;8.07;;;6.90;99.90;;;;;;5029557;28;20075;-67
2021/04/08 12:29:46;;;;;;;9.45;8.27;;;7.00;99.90;;;;;;5029993;28;20065;-67
2021/04/08 12:32:14;;;;;;;9.43;8.20;;;6.80;99.90;;;;;;5029363;28;20412;-67
2021/04/08 12:34:41;;;;;;;9.27;8.32;;;6.80;99.90;;;;;;5010155;28;20065;-66
2021/04/08 12:37:09;;;;;;;9.63;8.07;;;6.80;99.90;;;;;;5014771;28;20045;-67
2021/04/08 12:39:36;;;;;;;11.40;8.40;;;6.70;99.90;;;;;;5011791;28;20397;-67
2021/04/08 12:42:04;;;;;;;9.70;7.78;;;6.80;99.90;;;;;;5018608;28;20072;-67
2021/04/08 12:44:31;;;;;;;8.82;8.02;;;6.70;99.90;;;;;;5010668;28;20057;-67
2021/04/08 12:46:58;;;;;;;9.18;8.30;;;6.60;99.90;;;;;;5011511;28;20061;-67
2021/04/08 12:49:25;;;;;;;11.65;9.15;;;6.80;99.90;;;;;;5020089;28;20123;-67
2021/04/08 12:51:51;;;;;;;9.43;8.52;;;7.00;99.90;;;;;;5012840;28;20046;-67
2021/04/08 12:54:19;;;;;;;10.68;8.93;;;7.40;99.90;;;;;;5021457;28;20065;-67
2021/04/08 12:56:46;;;;;;;8.70;7.95;;;8.00;99.90;;;;;;5020893;28;20053;-67
2021/04/08 12:59:14;;;;;;;8.88;8.07;;;8.40;99.90;;;;;;5019440;28;20119;-68
2021/04/08 13:01:40;;;;;;;9.98;8.80;;;8.40;99.90;;;;;;5021209;28;20064;-68
2021/04/08 13:04:07;;;;;;;10.30;8.45;;;8.50;99.90;;;;;;5019336;28;20049;-67
2021/04/08 13:06:34;;;;;;;8.77;8.00;;;8.40;99.90;;;;;;5029392;28;20062;-67
2021/04/08 13:09:01;;;;;;;9.15;8.13;;;8.30;99.90;;;;;;5030895;28;20396;-68